createdAt,value
2023-03-16T04:39:22.967Z,0.373
2023-03-16T04:45:30.271Z,0.747
2023-03-16T04:48:18.616Z,1.494
2023-03-16T04:51:01.895Z,2.614
2023-03-16T04:53:50.249Z,4.108
2023-03-16T04:56:28.383Z,7.47
2023-03-16T04:59:16.784Z,13.072
2023-03-16T05:04:07.506Z,31.747
2023-03-16T05:08:17.401Z,64.242
2023-03-16T05:10:50.489Z,94.869
2023-03-16T05:13:38.896Z,138.942
2023-03-16T05:17:33.496Z,222.606
2023-03-16T05:23:03.815Z,385.452
2023-03-16T05:27:13.819Z,543.816
2023-03-16T05:30:37.864Z,690.228
2023-03-16T05:33:15.957Z,806.76
2023-03-16T05:35:59.203Z,932.256
2023-03-16T05:38:32.270Z,1051.776
2023-03-16T05:44:08.902Z,1314.72
2023-03-16T05:47:07.571Z,1452.168
2023-03-16T05:50:51.890Z,1613.52
2023-03-16T05:53:30.065Z,1733.04
2023-03-16T05:56:28.607Z,1864.512
2023-03-16T06:01:58.701Z,2426.256
2023-03-16T06:06:15.900Z,3848.544
2023-03-16T06:09:31.222Z,5736.96
2023-03-16T06:13:39.985Z,5139.36
2023-03-16T06:17:44.553Z,4685.184
2023-03-16T06:21:31.669Z,8079.552
2023-03-16T06:25:38.354Z,9179.136
2023-03-16T06:28:19.659Z,9705.024
2023-03-16T06:30:57.816Z,10278.72
2023-03-16T06:34:27.010Z,10995.84
2023-03-16T06:37:00.101Z,11282.688
2023-03-16T06:39:33.120Z,9944.064
2023-03-16T06:42:11.283Z,11760.768
2023-03-16T06:45:20.063Z,12334.464
2023-03-16T06:49:12.692Z,10087.488
2023-03-16T06:52:26.393Z,11521.728
2023-03-16T06:55:04.451Z,13386.24
2023-03-16T06:57:51.570Z,8844.48
2023-03-16T07:00:30.401Z,10900.224
2023-03-16T07:04:33.621Z,15585.408
2023-03-16T07:07:47.417Z,16828.416
2023-03-16T07:10:21.811Z,15107.328
2023-03-16T07:12:59.438Z,9944.064
2023-03-16T07:16:52.675Z,18645.12
2023-03-16T07:20:16.665Z,19410.048
2023-03-16T07:23:00.002Z,20174.976
2023-03-16T07:25:43.191Z,20557.44
2023-03-16T07:29:12.428Z,21035.52
2023-03-16T07:31:50.726Z,21322.368
2023-03-16T07:34:43.824Z,20653.056
2023-03-16T07:37:26.028Z,21513.6
2023-03-16T07:39:57.809Z,21800.448
2023-03-16T07:42:41.044Z,21896.064
2023-03-16T07:45:39.732Z,22087.296
2023-03-16T07:48:17.829Z,22182.912
2023-03-16T07:50:50.976Z,22660.992
2023-03-16T07:53:24.140Z,23234.688
2023-03-16T07:56:22.746Z,23808.384
2023-03-16T07:59:09.634Z,21322.368
2023-03-16T08:01:42.180Z,23617.152
2023-03-16T08:05:16.647Z,25051.392
2023-03-16T08:08:30.602Z,25816.32
2023-03-16T08:11:59.722Z,26390.016
2023-03-16T08:15:28.955Z,27346.176
2023-03-16T08:18:12.299Z,27919.872
2023-03-16T08:20:55.593Z,27346.176
2023-03-16T08:25:00.620Z,29067.264
2023-03-16T08:27:43.889Z,26772.48
2023-03-16T08:30:32.139Z,30214.656
2023-03-16T08:33:10.080Z,31170.816
2023-03-16T08:36:34.104Z,30214.656
2023-03-16T08:39:07.829Z,31553.28
2023-03-16T08:41:40.367Z,31553.28
2023-03-16T08:44:13.463Z,30597.12
2023-03-16T08:47:32.496Z,30979.584
2023-03-16T08:50:05.573Z,33656.832
2023-03-16T08:52:59.059Z,34421.76
2023-03-16T08:55:47.486Z,35186.688
2023-03-16T08:58:37.534Z,33656.832
2023-03-16T09:01:15.824Z,36142.848
2023-03-16T09:04:34.900Z,36716.544
2023-03-16T09:07:28.362Z,37481.472
2023-03-16T09:10:11.712Z,37672.704
2023-03-16T09:12:55.165Z,37863.936
2023-03-16T09:15:38.403Z,38246.4
2023-03-16T09:18:16.703Z,38628.864
2023-03-16T09:21:00.241Z,39585.024
2023-03-16T09:24:08.880Z,39967.488
2023-03-16T09:26:57.361Z,40732.416
2023-03-16T09:29:30.434Z,40349.952
2023-03-16T09:32:24.055Z,40732.416
2023-03-16T09:34:57.220Z,40541.184
2023-03-16T09:37:39.865Z,40158.72
2023-03-16T09:40:10.287Z,40158.72
2023-03-16T09:42:46.758Z,42262.272
2023-03-16T09:45:30.331Z,43600.896
2023-03-16T09:48:03.517Z,41497.344
2023-03-16T09:51:01.209Z,43600.896
2023-03-16T09:53:39.409Z,43792.128
2023-03-16T09:56:12.450Z,44748.288
2023-03-16T09:59:11.086Z,45130.752
2023-03-16T10:01:44.243Z,45130.752
2023-03-16T10:04:32.711Z,45321.984
2023-03-16T10:07:10.903Z,45513.216
2023-03-16T10:09:43.997Z,44939.52
2023-03-16T10:12:22.243Z,45513.216
2023-03-16T10:15:10.700Z,46086.912
2023-03-16T10:18:04.135Z,46278.144
2023-03-16T10:20:37.300Z,46660.608
2023-03-16T10:23:25.720Z,47425.536
2023-03-16T10:26:34.558Z,47616.768
2023-03-16T10:29:07.737Z,48190.464
2023-03-16T10:32:16.626Z,48190.464
2023-03-16T10:35:15.192Z,48381.696
2023-03-16T10:38:29.140Z,48955.392
2023-03-16T10:41:22.852Z,48955.392
2023-03-16T10:44:16.208Z,49720.32
2023-03-16T10:52:31.296Z,49337.856
2023-03-16T10:55:04.478Z,49720.32
2023-03-16T11:01:17.184Z,50485.248
2023-03-16T11:03:50.216Z,50485.248
2023-03-16T11:06:43.746Z,50485.248
2023-03-16T11:09:18.766Z,50867.712
2023-03-16T11:12:40.985Z,51632.64
2023-03-16T11:15:32.592Z,46660.608
2023-03-16T11:18:00.711Z,49720.32
2023-03-16T11:21:19.792Z,50102.784
2023-03-16T11:23:52.894Z,51632.64
2023-03-16T11:26:46.877Z,51250.176
2023-03-16T11:29:50.185Z,51632.64
2023-03-16T11:32:28.787Z,52015.104
2023-03-16T11:35:58.255Z,50867.712
2023-03-16T11:38:38.387Z,52015.104
2023-03-16T11:41:11.610Z,52015.104
2023-03-16T11:44:10.187Z,52015.104
2023-03-16T11:46:48.454Z,52015.104
2023-03-16T11:49:38.058Z,52015.104
2023-03-16T11:52:36.648Z,52015.104
2023-03-16T11:55:09.760Z,51250.176
2023-03-16T11:57:42.912Z,50485.248
2023-03-16T12:00:16.151Z,46851.84
2023-03-16T12:02:46.704Z,52015.104
2023-03-16T12:05:40.082Z,52015.104
2023-03-16T12:08:13.275Z,51632.64
2023-03-16T12:11:01.722Z,50867.712
2023-03-16T12:13:34.849Z,50867.712
2023-03-16T12:16:33.101Z,49720.32
2023-03-16T12:19:01.555Z,51250.176
2023-03-16T12:22:51.372Z,50485.248
2023-03-16T12:25:39.815Z,50485.248
2023-03-16T12:28:33.354Z,49720.32
2023-03-16T12:31:52.567Z,50102.784
2023-03-16T12:34:35.960Z,50102.784
2023-03-16T12:37:09.099Z,47425.536
2023-03-16T12:39:47.358Z,49720.32
2023-03-16T12:42:25.551Z,48955.392
2023-03-16T12:45:03.893Z,49337.856
2023-03-16T12:47:42.110Z,49720.32
2023-03-16T12:50:30.619Z,48955.392
2023-03-16T12:53:03.781Z,48572.928
2023-03-16T12:55:42.066Z,48764.16
2023-03-16T12:58:20.304Z,47999.232
2023-03-16T13:01:29.256Z,48190.464
2023-03-16T13:04:02.398Z,47808
2023-03-16T13:07:26.612Z,47043.072
2023-03-16T13:10:30.738Z,46278.144
2023-03-16T13:13:18.863Z,46851.84
2023-03-16T13:16:12.477Z,46469.376
2023-03-16T13:18:50.658Z,45321.984
2023-03-16T13:21:28.394Z,44365.824
2023-03-16T13:24:01.550Z,44748.288
2023-03-16T13:26:39.906Z,43600.896
2023-03-16T13:29:14.759Z,43983.36
2023-03-16T13:31:53.180Z,44748.288
2023-03-16T13:34:46.696Z,43600.896
2023-03-16T13:37:19.782Z,42453.504
2023-03-16T13:40:03.144Z,42835.968
2023-03-16T13:42:46.404Z,43600.896
2023-03-16T13:45:18.601Z,26198.784
2023-03-16T13:47:50.370Z,29449.728
2023-03-16T13:50:22.466Z,43218.432
2023-03-16T13:53:16.056Z,42453.504
2023-03-16T13:55:59.401Z,40541.184
2023-03-16T13:58:34.230Z,40541.184
2023-03-16T14:01:41.389Z,39393.792
2023-03-16T14:04:50.375Z,39967.488
2023-03-16T14:07:38.799Z,39585.024
2023-03-16T14:10:17.088Z,38820.096
2023-03-16T14:13:20.940Z,38628.864
2023-03-16T14:15:54.084Z,38055.168
2023-03-16T14:18:47.606Z,37290.24
2023-03-16T14:21:30.949Z,36716.544
2023-03-16T14:24:04.043Z,34995.456
2023-03-16T14:27:02.748Z,35569.152
2023-03-16T14:29:40.971Z,34804.224
2023-03-16T14:32:19.279Z,34421.76
2023-03-16T14:35:23.004Z,33848.064
2023-03-16T14:38:01.257Z,32318.208
2023-03-16T14:40:59.907Z,32700.672
2023-03-16T14:43:53.419Z,31935.744
2023-03-16T14:46:26.585Z,31553.28
2023-03-16T14:48:59.711Z,30214.656
2023-03-16T14:51:37.928Z,28876.032
2023-03-16T14:54:11.079Z,28876.032
2023-03-16T14:56:49.253Z,25051.392
2023-03-16T14:59:37.734Z,28302.336
2023-03-16T15:02:46.744Z,27919.872
2023-03-16T15:05:30.351Z,26390.016
2023-03-16T15:08:18.540Z,23617.152
2023-03-16T15:10:48.637Z,22278.528
2023-03-16T15:13:21.806Z,22852.224
2023-03-16T15:16:20.509Z,24190.848
2023-03-16T15:18:53.720Z,23617.152
2023-03-16T15:21:52.443Z,22756.608
2023-03-16T15:24:35.859Z,21896.064
2023-03-16T15:27:19.349Z,20939.904
2023-03-16T15:30:33.181Z,19505.664
2023-03-16T15:33:42.130Z,17306.496
2023-03-16T15:36:15.290Z,14246.784
2023-03-16T15:38:48.486Z,11760.768
2023-03-16T15:41:38.265Z,8605.44
2023-03-16T15:44:04.942Z,7219.008
2023-03-16T15:46:43.241Z,5569.632
2023-03-16T15:49:16.304Z,5187.168
2023-03-16T15:52:04.778Z,4709.088
2023-03-16T15:54:43.069Z,4207.104
2023-03-16T15:57:36.594Z,3944.16
2023-03-16T16:00:35.337Z,4350.528
2023-03-16T16:03:39.061Z,4231.008
2023-03-16T16:06:17.224Z,3991.968
2023-03-16T16:08:55.488Z,3729.024
2023-03-16T16:11:33.756Z,3489.984
2023-03-16T16:14:06.876Z,3346.56
2023-03-16T16:16:45.146Z,3203.136
2023-03-16T16:19:59.229Z,3107.52
2023-03-16T16:22:47.554Z,3083.616
2023-03-16T16:25:31.528Z,2988
2023-03-16T16:28:04.156Z,2832.624
2023-03-16T16:30:37.195Z,2617.488
2023-03-16T16:33:10.407Z,2450.16
2023-03-16T16:35:48.659Z,2223.072
2023-03-16T16:38:21.762Z,2031.84
2023-03-16T16:41:10.238Z,1876.464
2023-03-16T16:43:43.376Z,1768.896
2023-03-16T16:46:26.894Z,1649.376
2023-03-16T16:48:59.979Z,1517.904
2023-03-16T16:51:33.108Z,1344.6
2023-03-16T16:54:21.500Z,1117.512
2023-03-16T16:56:59.763Z,932.256
2023-03-16T16:59:48.121Z,747
2023-03-16T17:02:26.328Z,582.66
2023-03-16T17:04:59.453Z,457.164
2023-03-16T17:07:32.601Z,351.09
2023-03-16T17:10:10.793Z,277.884
2023-03-16T17:12:43.857Z,228.582
2023-03-16T17:15:32.655Z,186.75
2023-03-16T17:18:10.472Z,150.147
2023-03-16T17:21:08.992Z,112.05
2023-03-16T17:23:42.131Z,81.049
2023-03-16T17:26:25.351Z,54.157
2023-03-16T17:29:23.979Z,32.494
2023-03-16T17:32:02.160Z,20.169
2023-03-16T17:34:40.307Z,12.325
2023-03-16T17:37:23.564Z,7.843
2023-03-16T17:39:57.680Z,4.482
2023-03-16T17:43:00.449Z,2.614
2023-03-16T17:47:00.265Z,1.12
2023-03-16T17:50:14.226Z,0.373
2023-03-16T17:56:06.329Z,0
